sensor_id;sensor_type;location;lat;lon;timestamp;temperature;humidity
11304;DHT22;5707;49.588;12.148;2024-01-30T00:02:16;-5.80;99.90
11304;DHT22;5707;49.588;12.148;2024-01-30T00:04:41;-5.90;99.90
11304;DHT22;5707;49.588;12.148;2024-01-30T00:07:07;-5.90;99.90
11304;DHT22;5707;49.588;12.148;2024-01-30T00:09:33;-5.90;99.90
11304;DHT22;5707;49.588;12.148;2024-01-30T00:11:59;-5.90;99.90
11304;DHT22;5707;49.588;12.148;2024-01-30T00:14:24;-5.90;99.90
11304;DHT22;5707;49.588;12.148;2024-01-30T00:16:51;-6.00;99.90
11304;DHT22;5707;49.588;12.148;2024-01-30T00:19:16;-6.00;99.90
11304;DHT22;5707;49.588;12.148;2024-01-30T00:21:42;-6.10;99.90
11304;DHT22;5707;49.588;12.148;2024-01-30T00:24:07;-6.10;99.90
11304;DHT22;5707;49.588;12.148;2024-01-30T00:26:33;-6.00;99.90
11304;DHT22;5707;49.588;12.148;2024-01-30T00:28:59;-6.10;99.90
11304;DHT22;5707;49.588;12.148;2024-01-30T00:31:24;-6.10;99.90
11304;DHT22;5707;49.588;12.148;2024-01-30T00:33:50;-6.10;99.90
11304;DHT22;5707;49.588;12.148;2024-01-30T00:36:16;-6.10;99.90
11304;DHT22;5707;49.588;12.148;2024-01-30T00:38:41;-6.10;99.90
11304;DHT22;5707;49.588;12.148;2024-01-30T00:41:10;-6.10;99.90
11304;DHT22;5707;49.588;12.148;2024-01-30T00:43:36;-6.10;99.90
11304;DHT22;5707;49.588;12.148;2024-01-30T00:46:02;-6.10;99.90
11304;DHT22;5707;49.588;12.148;2024-01-30T00:48:27;-6.20;99.90
11304;DHT22;5707;49.588;12.148;2024-01-30T00:50:53;-6.10;99.90
11304;DHT22;5707;49.588;12.148;2024-01-30T00:53:18;-6.10;99.90
11304;DHT22;5707;49.588;12.148;2024-01-30T00:55:44;-6.10;99.90
11304;DHT22;5707;49.588;12.148;2024-01-30T00:58:09;-6.20;99.90
11304;DHT22;5707;49.588;12.148;2024-01-30T01:00:35;-6.20;99.90
11304;DHT22;5707;49.588;12.148;2024-01-30T01:03:01;-6.20;99.90
11304;DHT22;5707;49.588;12.148;2024-01-30T01:05:27;-6.20;99.90
11304;DHT22;5707;49.588;12.148;2024-01-30T01:07:52;-6.20;99.90
11304;DHT22;5707;49.588;12.148;2024-01-30T01:10:18;-6.30;99.90
11304;DHT22;5707;49.588;12.148;2024-01-30T01:12:45;-6.30;99.90
11304;DHT22;5707;49.588;12.148;2024-01-30T01:15:11;-6.20;99.90
11304;DHT22;5707;49.588;12.148;2024-01-30T01:17:37;-6.30;99.90
11304;DHT22;5707;49.588;12.148;2024-01-30T01:20:04;-6.20;99.90
11304;DHT22;5707;49.588;12.148;2024-01-30T01:22:31;-6.20;99.90
11304;DHT22;5707;49.588;12.148;2024-01-30T01:24:57;-6.30;99.90
11304;DHT22;5707;49.588;12.148;2024-01-30T01:27:23;-6.40;99.90
11304;DHT22;5707;49.588;12.148;2024-01-30T01:29:49;-6.40;99.90
11304;DHT22;5707;49.588;12.148;2024-01-30T01:32:14;-6.40;99.90
11304;DHT22;5707;49.588;12.148;2024-01-30T01:34:40;-6.40;99.90
11304;DHT22;5707;49.588;12.148;2024-01-30T01:37:05;-6.30;99.90
11304;DHT22;5707;49.588;12.148;2024-01-30T01:39:31;-6.30;99.90
11304;DHT22;5707;49.588;12.148;2024-01-30T01:41:56;-6.30;99.90
11304;DHT22;5707;49.588;12.148;2024-01-30T01:44:22;-6.30;99.90
11304;DHT22;5707;49.588;12.148;2024-01-30T01:46:47;-6.40;99.90
11304;DHT22;5707;49.588;12.148;2024-01-30T01:49:14;-6.40;99.90
11304;DHT22;5707;49.588;12.148;2024-01-30T01:51:40;-6.40;99.90
11304;DHT22;5707;49.588;12.148;2024-01-30T01:54:07;-6.40;99.90
11304;DHT22;5707;49.588;12.148;2024-01-30T01:56:33;-6.30;99.90
11304;DHT22;5707;49.588;12.148;2024-01-30T01:59:07;-6.40;99.90
11304;DHT22;5707;49.588;12.148;2024-01-30T02:01:34;-6.40;99.90
11304;DHT22;5707;49.588;12.148;2024-01-30T02:04:00;-6.40;99.90
11304;DHT22;5707;49.588;12.148;2024-01-30T02:06:26;-6.40;99.90
11304;DHT22;5707;49.588;12.148;2024-01-30T02:08:52;-6.50;99.90
11304;DHT22;5707;49.588;12.148;2024-01-30T02:11:18;-6.50;99.90
11304;DHT22;5707;49.588;12.148;2024-01-30T02:13:44;-6.50;99.90
11304;DHT22;5707;49.588;12.148;2024-01-30T02:16:09;-6.50;99.90
11304;DHT22;5707;49.588;12.148;2024-01-30T02:18:35;-6.50;99.90
11304;DHT22;5707;49.588;12.148;2024-01-30T02:21:05;-6.50;99.90
11304;DHT22;5707;49.588;12.148;2024-01-30T02:23:32;-6.60;99.90
11304;DHT22;5707;49.588;12.148;2024-01-30T02:25:58;-6.60;99.90
11304;DHT22;5707;49.588;12.148;2024-01-30T02:28:24;-6.60;99.90
11304;DHT22;5707;49.588;12.148;2024-01-30T02:30:50;-6.60;99.90
11304;DHT22;5707;49.588;12.148;2024-01-30T02:33:15;-6.60;99.90
11304;DHT22;5707;49.588;12.148;2024-01-30T02:35:41;-6.60;99.90
11304;DHT22;5707;49.588;12.148;2024-01-30T02:38:06;-6.60;99.90
11304;DHT22;5707;49.588;12.148;2024-01-30T02:40:32;-6.60;99.90
11304;DHT22;5707;49.588;12.148;2024-01-30T02:42:59;-6.60;99.90
11304;DHT22;5707;49.588;12.148;2024-01-30T02:45:25;-6.60;99.90
11304;DHT22;5707;49.588;12.148;2024-01-30T02:47:51;-6.70;99.90
11304;DHT22;5707;49.588;12.148;2024-01-30T02:50:16;-6.70;99.90
11304;DHT22;5707;49.588;12.148;2024-01-30T02:52:42;-6.60;99.90
11304;DHT22;5707;49.588;12.148;2024-01-30T02:55:11;-6.60;99.90
11304;DHT22;5707;49.588;12.148;2024-01-30T02:57:37;-6.60;99.90
11304;DHT22;5707;49.588;12.148;2024-01-30T03:00:03;-6.60;99.90
11304;DHT22;5707;49.588;12.148;2024-01-30T03:02:31;-6.60;99.90
11304;DHT22;5707;49.588;12.148;2024-01-30T03:04:56;-6.60;99.90
11304;DHT22;5707;49.588;12.148;2024-01-30T03:07:22;-6.60;99.90
11304;DHT22;5707;49.588;12.148;2024-01-30T03:09:47;-6.60;99.90
11304;DHT22;5707;49.588;12.148;2024-01-30T03:12:13;-6.60;99.90
11304;DHT22;5707;49.588;12.148;2024-01-30T03:14:39;-6.50;99.90
11304;DHT22;5707;49.588;12.148;2024-01-30T03:17:04;-6.50;99.90
11304;DHT22;5707;49.588;12.148;2024-01-30T03:19:30;-6.50;99.90
11304;DHT22;5707;49.588;12.148;2024-01-30T03:21:55;-6.60;99.90
11304;DHT22;5707;49.588;12.148;2024-01-30T03:24:21;-6.60;99.90
11304;DHT22;5707;49.588;12.148;2024-01-30T03:26:47;-6.70;99.90
11304;DHT22;5707;49.588;12.148;2024-01-30T03:29:12;-6.70;99.90
11304;DHT22;5707;49.588;12.148;2024-01-30T03:31:39;-6.70;99.90
11304;DHT22;5707;49.588;12.148;2024-01-30T03:34:04;-6.70;99.90
11304;DHT22;5707;49.588;12.148;2024-01-30T03:36:30;-6.80;99.90
11304;DHT22;5707;49.588;12.148;2024-01-30T03:38:58;-6.80;99.90
11304;DHT22;5707;49.588;12.148;2024-01-30T03:41:23;-6.70;99.90
11304;DHT22;5707;49.588;12.148;2024-01-30T03:43:49;-6.70;99.90
11304;DHT22;5707;49.588;12.148;2024-01-30T03:46:15;-6.70;99.90
11304;DHT22;5707;49.588;12.148;2024-01-30T03:48:41;-6.70;99.90
11304;DHT22;5707;49.588;12.148;2024-01-30T03:51:06;-6.70;99.90
11304;DHT22;5707;49.588;12.148;2024-01-30T03:53:32;-6.70;99.90
11304;DHT22;5707;49.588;12.148;2024-01-30T03:55:58;-6.70;99.90
11304;DHT22;5707;49.588;12.148;2024-01-30T03:58:23;-6.70;99.90
11304;DHT22;5707;49.588;12.148;2024-01-30T04:00:49;-6.70;99.90
11304;DHT22;5707;49.588;12.148;2024-01-30T04:03:15;-6.70;99.90
11304;DHT22;5707;49.588;12.148;2024-01-30T04:05:43;-6.70;99.90
11304;DHT22;5707;49.588;12.148;2024-01-30T04:08:09;-6.70;99.90
11304;DHT22;5707;49.588;12.148;2024-01-30T04:10:35;-6.70;99.90
11304;DHT22;5707;49.588;12.148;2024-01-30T04:13:01;-6.70;99.90
11304;DHT22;5707;49.588;12.148;2024-01-30T04:15:27;-6.70;99.90
11304;DHT22;5707;49.588;12.148;2024-01-30T04:17:53;-6.70;99.90
11304;DHT22;5707;49.588;12.148;2024-01-30T04:20:19;-6.80;99.90
11304;DHT22;5707;49.588;12.148;2024-01-30T04:22:44;-6.70;99.90
11304;DHT22;5707;49.588;12.148;2024-01-30T04:25:11;-6.70;99.90
11304;DHT22;5707;49.588;12.148;2024-01-30T04:27:37;-6.60;99.90
11304;DHT22;5707;49.588;12.148;2024-01-30T04:30:03;-6.60;99.90
11304;DHT22;5707;49.588;12.148;2024-01-30T04:32:29;-6.60;99.90
11304;DHT22;5707;49.588;12.148;2024-01-30T04:34:54;-6.60;99.90
11304;DHT22;5707;49.588;12.148;2024-01-30T04:37:20;-6.60;99.90
11304;DHT22;5707;49.588;12.148;2024-01-30T04:39:45;-6.50;99.90
11304;DHT22;5707;49.588;12.148;2024-01-30T04:42:11;-6.50;99.90
11304;DHT22;5707;49.588;12.148;2024-01-30T04:44:36;-6.30;99.90
11304;DHT22;5707;49.588;12.148;2024-01-30T04:47:02;-6.30;99.90
11304;DHT22;5707;49.588;12.148;2024-01-30T04:49:28;-6.30;99.90
11304;DHT22;5707;49.588;12.148;2024-01-30T04:51:54;-6.30;99.90
11304;DHT22;5707;49.588;12.148;2024-01-30T04:54:20;-6.30;99.90
11304;DHT22;5707;49.588;12.148;2024-01-30T04:56:45;-6.40;99.90
11304;DHT22;5707;49.588;12.148;2024-01-30T04:59:11;-6.40;99.90
11304;DHT22;5707;49.588;12.148;2024-01-30T05:01:37;-6.40;99.90
11304;DHT22;5707;49.588;12.148;2024-01-30T05:04:03;-6.50;99.90
11304;DHT22;5707;49.588;12.148;2024-01-30T05:06:29;-6.50;99.90
11304;DHT22;5707;49.588;12.148;2024-01-30T05:08:55;-6.50;99.90
11304;DHT22;5707;49.588;12.148;2024-01-30T05:11:21;-6.60;99.90
11304;DHT22;5707;49.588;12.148;2024-01-30T05:13:46;-6.60;99.90
11304;DHT22;5707;49.588;12.148;2024-01-30T05:16:13;-6.70;99.90
11304;DHT22;5707;49.588;12.148;2024-01-30T05:18:38;-6.70;99.90
11304;DHT22;5707;49.588;12.148;2024-01-30T05:21:05;-6.60;99.90
11304;DHT22;5707;49.588;12.148;2024-01-30T05:23:30;-6.50;99.90
11304;DHT22;5707;49.588;12.148;2024-01-30T05:25:56;-6.50;99.90
11304;DHT22;5707;49.588;12.148;2024-01-30T05:28:21;-6.50;99.90
11304;DHT22;5707;49.588;12.148;2024-01-30T05:30:47;-6.40;99.90
11304;DHT22;5707;49.588;12.148;2024-01-30T05:33:12;-6.30;99.90
11304;DHT22;5707;49.588;12.148;2024-01-30T05:35:38;-6.10;99.90
11304;DHT22;5707;49.588;12.148;2024-01-30T05:38:04;-6.10;99.90
11304;DHT22;5707;49.588;12.148;2024-01-30T05:40:30;-6.20;99.90
11304;DHT22;5707;49.588;12.148;2024-01-30T05:42:56;-6.10;99.90
11304;DHT22;5707;49.588;12.148;2024-01-30T05:45:23;-6.10;99.90
11304;DHT22;5707;49.588;12.148;2024-01-30T05:47:49;-5.90;99.90
11304;DHT22;5707;49.588;12.148;2024-01-30T05:50:14;-5.60;99.90
11304;DHT22;5707;49.588;12.148;2024-01-30T05:52:40;-5.40;99.90
11304;DHT22;5707;49.588;12.148;2024-01-30T05:55:06;-5.20;99.90
11304;DHT22;5707;49.588;12.148;2024-01-30T05:57:32;-5.40;99.90
11304;DHT22;5707;49.588;12.148;2024-01-30T05:59:57;-5.60;99.90
11304;DHT22;5707;49.588;12.148;2024-01-30T06:02:23;-5.70;99.90
11304;DHT22;5707;49.588;12.148;2024-01-30T06:04:49;-5.90;99.90
11304;DHT22;5707;49.588;12.148;2024-01-30T06:07:14;-6.00;99.90
11304;DHT22;5707;49.588;12.148;2024-01-30T06:09:40;-6.10;99.90
11304;DHT22;5707;49.588;12.148;2024-01-30T06:12:06;-6.20;99.90
11304;DHT22;5707;49.588;12.148;2024-01-30T06:14:32;-6.20;99.90
11304;DHT22;5707;49.588;12.148;2024-01-30T06:16:58;-6.20;99.90
11304;DHT22;5707;49.588;12.148;2024-01-30T06:19:24;-6.30;99.90
11304;DHT22;5707;49.588;12.148;2024-01-30T06:21:50;-6.40;99.90
11304;DHT22;5707;49.588;12.148;2024-01-30T06:24:15;-6.50;99.90
11304;DHT22;5707;49.588;12.148;2024-01-30T06:26:41;-6.50;99.90
11304;DHT22;5707;49.588;12.148;2024-01-30T06:29:06;-6.50;99.90
11304;DHT22;5707;49.588;12.148;2024-01-30T06:31:33;-6.50;99.90
11304;DHT22;5707;49.588;12.148;2024-01-30T06:33:58;-6.60;99.90
11304;DHT22;5707;49.588;12.148;2024-01-30T06:36:24;-6.50;99.90
11304;DHT22;5707;49.588;12.148;2024-01-30T06:38:49;-6.50;99.90
11304;DHT22;5707;49.588;12.148;2024-01-30T06:41:15;-6.40;99.90
11304;DHT22;5707;49.588;12.148;2024-01-30T06:43:41;-6.50;99.90
11304;DHT22;5707;49.588;12.148;2024-01-30T06:46:06;-6.40;99.90
11304;DHT22;5707;49.588;12.148;2024-01-30T06:48:32;-6.40;99.90
11304;DHT22;5707;49.588;12.148;2024-01-30T06:50:57;-6.40;99.90
11304;DHT22;5707;49.588;12.148;2024-01-30T06:53:23;-6.30;99.90
11304;DHT22;5707;49.588;12.148;2024-01-30T06:55:52;-6.00;99.90
11304;DHT22;5707;49.588;12.148;2024-01-30T06:58:17;-6.00;99.90
11304;DHT22;5707;49.588;12.148;2024-01-30T07:00:43;-5.90;99.90
11304;DHT22;5707;49.588;12.148;2024-01-30T07:03:08;-5.80;99.90
11304;DHT22;5707;49.588;12.148;2024-01-30T07:05:34;-5.50;99.90
11304;DHT22;5707;49.588;12.148;2024-01-30T07:07:59;-5.40;99.90
11304;DHT22;5707;49.588;12.148;2024-01-30T07:10:25;-5.30;99.90
11304;DHT22;5707;49.588;12.148;2024-01-30T07:12:51;-5.40;99.90
11304;DHT22;5707;49.588;12.148;2024-01-30T07:15:16;-5.50;99.90
11304;DHT22;5707;49.588;12.148;2024-01-30T07:17:45;-5.60;99.90
11304;DHT22;5707;49.588;12.148;2024-01-30T07:20:11;-5.60;99.90
11304;DHT22;5707;49.588;12.148;2024-01-30T07:22:37;-5.60;99.90
11304;DHT22;5707;49.588;12.148;2024-01-30T07:25:02;-5.50;99.90
11304;DHT22;5707;49.588;12.148;2024-01-30T07:27:28;-5.40;99.90
11304;DHT22;5707;49.588;12.148;2024-01-30T07:29:53;-5.10;99.90
11304;DHT22;5707;49.588;12.148;2024-01-30T07:32:19;-5.00;99.90
11304;DHT22;5707;49.588;12.148;2024-01-30T07:34:45;-4.80;99.90
11304;DHT22;5707;49.588;12.148;2024-01-30T07:37:10;-4.70;99.90
11304;DHT22;5707;49.588;12.148;2024-01-30T07:39:38;-4.60;99.90
11304;DHT22;5707;49.588;12.148;2024-01-30T07:42:04;-4.50;99.90
11304;DHT22;5707;49.588;12.148;2024-01-30T07:44:29;-4.40;99.90
11304;DHT22;5707;49.588;12.148;2024-01-30T07:46:55;-4.30;99.90
11304;DHT22;5707;49.588;12.148;2024-01-30T07:49:20;-4.20;99.90
11304;DHT22;5707;49.588;12.148;2024-01-30T07:51:46;-4.10;99.90
11304;DHT22;5707;49.588;12.148;2024-01-30T07:54:12;-4.00;99.90
11304;DHT22;5707;49.588;12.148;2024-01-30T07:56:37;-3.90;99.90
11304;DHT22;5707;49.588;12.148;2024-01-30T07:59:03;-3.80;99.90
11304;DHT22;5707;49.588;12.148;2024-01-30T08:01:28;-3.70;99.90
11304;DHT22;5707;49.588;12.148;2024-01-30T08:03:54;-3.50;99.90
11304;DHT22;5707;49.588;12.148;2024-01-30T08:06:19;-3.40;99.90
11304;DHT22;5707;49.588;12.148;2024-01-30T08:08:45;-3.20;99.90
11304;DHT22;5707;49.588;12.148;2024-01-30T08:11:11;-3.00;99.90
11304;DHT22;5707;49.588;12.148;2024-01-30T08:13:37;-2.90;99.90
11304;DHT22;5707;49.588;12.148;2024-01-30T08:16:02;-2.80;99.90
11304;DHT22;5707;49.588;12.148;2024-01-30T08:18:28;-2.70;99.90
11304;DHT22;5707;49.588;12.148;2024-01-30T08:20:54;-2.60;99.90
11304;DHT22;5707;49.588;12.148;2024-01-30T08:23:19;-2.50;99.90
11304;DHT22;5707;49.588;12.148;2024-01-30T08:25:45;-2.50;99.90
11304;DHT22;5707;49.588;12.148;2024-01-30T08:28:10;-2.40;99.90
11304;DHT22;5707;49.588;12.148;2024-01-30T08:30:36;-2.30;99.90
11304;DHT22;5707;49.588;12.148;2024-01-30T08:33:01;-2.20;99.90
11304;DHT22;5707;49.588;12.148;2024-01-30T08:35:27;-2.00;99.90
11304;DHT22;5707;49.588;12.148;2024-01-30T08:37:52;-1.90;99.90
11304;DHT22;5707;49.588;12.148;2024-01-30T08:40:19;-1.80;99.90
11304;DHT22;5707;49.588;12.148;2024-01-30T08:42:45;-1.60;99.90
11304;DHT22;5707;49.588;12.148;2024-01-30T08:45:11;-1.50;99.90
11304;DHT22;5707;49.588;12.148;2024-01-30T08:47:36;-1.40;99.90
11304;DHT22;5707;49.588;12.148;2024-01-30T08:50:02;-1.30;99.90
11304;DHT22;5707;49.588;12.148;2024-01-30T08:52:28;-1.20;99.90
11304;DHT22;5707;49.588;12.148;2024-01-30T08:54:53;-1.10;99.90
11304;DHT22;5707;49.588;12.148;2024-01-30T08:57:19;-0.90;99.90
11304;DHT22;5707;49.588;12.148;2024-01-30T08:59:45;-0.80;99.90
11304;DHT22;5707;49.588;12.148;2024-01-30T09:02:13;-0.70;99.90
11304;DHT22;5707;49.588;12.148;2024-01-30T09:04:41;-0.70;99.90
11304;DHT22;5707;49.588;12.148;2024-01-30T09:07:08;-0.60;99.90
11304;DHT22;5707;49.588;12.148;2024-01-30T09:09:34;-0.60;99.90
11304;DHT22;5707;49.588;12.148;2024-01-30T09:12:00;-0.50;99.90
11304;DHT22;5707;49.588;12.148;2024-01-30T09:14:30;-0.40;99.90
11304;DHT22;5707;49.588;12.148;2024-01-30T09:16:56;-0.30;99.90
11304;DHT22;5707;49.588;12.148;2024-01-30T09:19:21;-0.20;99.90
11304;DHT22;5707;49.588;12.148;2024-01-30T09:21:47;-0.10;99.90
11304;DHT22;5707;49.588;12.148;2024-01-30T09:24:12;0.10;99.90
11304;DHT22;5707;49.588;12.148;2024-01-30T09:26:41;0.10;99.90
11304;DHT22;5707;49.588;12.148;2024-01-30T09:29:07;0.10;99.90
11304;DHT22;5707;49.588;12.148;2024-01-30T09:31:32;0.20;99.90
11304;DHT22;5707;49.588;12.148;2024-01-30T09:33:58;0.20;99.90
11304;DHT22;5707;49.588;12.148;2024-01-30T09:36:24;0.20;99.90
11304;DHT22;5707;49.588;12.148;2024-01-30T09:38:49;0.20;99.90
11304;DHT22;5707;49.588;12.148;2024-01-30T09:41:15;0.20;99.90
11304;DHT22;5707;49.588;12.148;2024-01-30T09:43:42;0.20;99.90
11304;DHT22;5707;49.588;12.148;2024-01-30T09:46:12;0.30;99.90
11304;DHT22;5707;49.588;12.148;2024-01-30T09:48:41;0.30;99.90
11304;DHT22;5707;49.588;12.148;2024-01-30T09:51:09;0.40;99.90
11304;DHT22;5707;49.588;12.148;2024-01-30T09:53:36;0.70;99.90
11304;DHT22;5707;49.588;12.148;2024-01-30T09:56:02;1.00;99.90
11304;DHT22;5707;49.588;12.148;2024-01-30T09:58:28;1.40;99.90
11304;DHT22;5707;49.588;12.148;2024-01-30T10:00:53;1.70;99.90
11304;DHT22;5707;49.588;12.148;2024-01-30T10:03:19;1.90;99.90
11304;DHT22;5707;49.588;12.148;2024-01-30T10:05:51;2.10;99.90
11304;DHT22;5707;49.588;12.148;2024-01-30T10:08:19;2.30;99.90
11304;DHT22;5707;49.588;12.148;2024-01-30T10:10:48;2.40;99.90
11304;DHT22;5707;49.588;12.148;2024-01-30T10:13:15;2.40;99.90
11304;DHT22;5707;49.588;12.148;2024-01-30T10:15:41;2.70;99.90
11304;DHT22;5707;49.588;12.148;2024-01-30T10:18:08;3.00;99.90
11304;DHT22;5707;49.588;12.148;2024-01-30T10:20:35;3.10;99.90
11304;DHT22;5707;49.588;12.148;2024-01-30T10:23:01;3.50;99.90
11304;DHT22;5707;49.588;12.148;2024-01-30T10:25:27;3.90;99.90
11304;DHT22;5707;49.588;12.148;2024-01-30T10:27:56;4.20;99.90
11304;DHT22;5707;49.588;12.148;2024-01-30T10:30:22;4.50;99.90
11304;DHT22;5707;49.588;12.148;2024-01-30T10:32:48;4.70;99.90
11304;DHT22;5707;49.588;12.148;2024-01-30T10:35:14;5.00;99.90
11304;DHT22;5707;49.588;12.148;2024-01-30T10:37:41;5.20;99.90
11304;DHT22;5707;49.588;12.148;2024-01-30T10:40:09;5.30;99.90
11304;DHT22;5707;49.588;12.148;2024-01-30T10:42:44;5.50;99.90
11304;DHT22;5707;49.588;12.148;2024-01-30T10:45:11;5.70;99.90
11304;DHT22;5707;49.588;12.148;2024-01-30T10:47:49;5.70;99.90
11304;DHT22;5707;49.588;12.148;2024-01-30T10:50:15;5.80;99.90
11304;DHT22;5707;49.588;12.148;2024-01-30T10:52:41;5.80;99.90
11304;DHT22;5707;49.588;12.148;2024-01-30T10:55:07;5.90;99.90
11304;DHT22;5707;49.588;12.148;2024-01-30T10:57:37;6.10;99.90
11304;DHT22;5707;49.588;12.148;2024-01-30T11:00:09;6.20;99.90
11304;DHT22;5707;49.588;12.148;2024-01-30T11:02:41;6.40;99.90
11304;DHT22;5707;49.588;12.148;2024-01-30T11:05:08;6.50;99.90
11304;DHT22;5707;49.588;12.148;2024-01-30T11:07:34;6.70;99.90
11304;DHT22;5707;49.588;12.148;2024-01-30T11:10:00;6.80;99.90
11304;DHT22;5707;49.588;12.148;2024-01-30T11:12:27;6.90;99.90
11304;DHT22;5707;49.588;12.148;2024-01-30T11:15:22;7.00;99.90
11304;DHT22;5707;49.588;12.148;2024-01-30T11:20:30;7.00;94.50
11304;DHT22;5707;49.588;12.148;2024-01-30T11:22:57;7.00;94.80
11304;DHT22;5707;49.588;12.148;2024-01-30T11:25:23;6.80;93.40
11304;DHT22;5707;49.588;12.148;2024-01-30T11:27:51;6.70;94.40
11304;DHT22;5707;49.588;12.148;2024-01-30T11:30:28;6.90;96.20
11304;DHT22;5707;49.588;12.148;2024-01-30T11:33:12;7.10;93.90
11304;DHT22;5707;49.588;12.148;2024-01-30T11:35:42;7.20;92.40
11304;DHT22;5707;49.588;12.148;2024-01-30T11:38:13;7.20;91.70
11304;DHT22;5707;49.588;12.148;2024-01-30T11:40:39;7.10;91.40
11304;DHT22;5707;49.588;12.148;2024-01-30T11:43:06;7.00;90.90
11304;DHT22;5707;49.588;12.148;2024-01-30T11:45:33;7.20;91.60
11304;DHT22;5707;49.588;12.148;2024-01-30T11:48:00;7.40;91.10
11304;DHT22;5707;49.588;12.148;2024-01-30T11:50:26;7.70;90.10
11304;DHT22;5707;49.588;12.148;2024-01-30T11:52:54;7.70;87.80
11304;DHT22;5707;49.588;12.148;2024-01-30T11:55:20;7.70;86.70
11304;DHT22;5707;49.588;12.148;2024-01-30T11:57:45;7.60;86.60
11304;DHT22;5707;49.588;12.148;2024-01-30T12:00:18;7.60;87.30
11304;DHT22;5707;49.588;12.148;2024-01-30T12:02:44;7.70;84.50
11304;DHT22;5707;49.588;12.148;2024-01-30T12:05:14;7.80;85.00
11304;DHT22;5707;49.588;12.148;2024-01-30T12:07:39;7.90;84.10
11304;DHT22;5707;49.588;12.148;2024-01-30T12:10:05;8.00;83.40
11304;DHT22;5707;49.588;12.148;2024-01-30T12:12:31;8.10;82.00
11304;DHT22;5707;49.588;12.148;2024-01-30T12:14:57;8.10;81.60
11304;DHT22;5707;49.588;12.148;2024-01-30T12:17:32;8.00;82.30
11304;DHT22;5707;49.588;12.148;2024-01-30T12:20:07;8.10;82.60
11304;DHT22;5707;49.588;12.148;2024-01-30T12:22:36;8.10;80.90
11304;DHT22;5707;49.588;12.148;2024-01-30T12:25:05;8.10;81.40
11304;DHT22;5707;49.588;12.148;2024-01-30T12:27:31;8.00;81.60
11304;DHT22;5707;49.588;12.148;2024-01-30T12:29:57;7.90;82.60
11304;DHT22;5707;49.588;12.148;2024-01-30T12:32:23;7.80;82.30
11304;DHT22;5707;49.588;12.148;2024-01-30T12:34:49;7.70;82.30
11304;DHT22;5707;49.588;12.148;2024-01-30T12:37:15;7.70;82.40
11304;DHT22;5707;49.588;12.148;2024-01-30T12:39:45;7.60;82.10
11304;DHT22;5707;49.588;12.148;2024-01-30T12:42:11;7.70;81.90
11304;DHT22;5707;49.588;12.148;2024-01-30T12:44:36;7.60;83.20
11304;DHT22;5707;49.588;12.148;2024-01-30T12:47:05;7.60;82.90
11304;DHT22;5707;49.588;12.148;2024-01-30T12:49:30;7.60;83.50
11304;DHT22;5707;49.588;12.148;2024-01-30T12:51:56;7.50;84.10
11304;DHT22;5707;49.588;12.148;2024-01-30T12:54:23;7.40;84.20
11304;DHT22;5707;49.588;12.148;2024-01-30T12:56:48;7.40;83.90
11304;DHT22;5707;49.588;12.148;2024-01-30T12:59:14;7.40;84.20
11304;DHT22;5707;49.588;12.148;2024-01-30T13:01:39;7.50;85.00
11304;DHT22;5707;49.588;12.148;2024-01-30T13:04:05;7.50;84.80
11304;DHT22;5707;49.588;12.148;2024-01-30T13:06:30;7.40;84.70
11304;DHT22;5707;49.588;12.148;2024-01-30T13:08:56;7.30;85.10
11304;DHT22;5707;49.588;12.148;2024-01-30T13:11:22;7.20;84.80
11304;DHT22;5707;49.588;12.148;2024-01-30T13:13:47;7.20;84.70
11304;DHT22;5707;49.588;12.148;2024-01-30T13:16:13;7.10;85.80
11304;DHT22;5707;49.588;12.148;2024-01-30T13:18:38;7.10;85.50
11304;DHT22;5707;49.588;12.148;2024-01-30T13:21:04;7.20;85.70
11304;DHT22;5707;49.588;12.148;2024-01-30T13:23:30;7.20;85.90
11304;DHT22;5707;49.588;12.148;2024-01-30T13:25:55;7.20;85.70
11304;DHT22;5707;49.588;12.148;2024-01-30T13:28:24;7.30;86.10
11304;DHT22;5707;49.588;12.148;2024-01-30T13:30:51;7.30;85.80
11304;DHT22;5707;49.588;12.148;2024-01-30T13:33:16;7.30;85.70
11304;DHT22;5707;49.588;12.148;2024-01-30T13:35:42;7.30;85.90
11304;DHT22;5707;49.588;12.148;2024-01-30T13:38:09;7.30;85.80
11304;DHT22;5707;49.588;12.148;2024-01-30T13:40:34;7.30;86.40
11304;DHT22;5707;49.588;12.148;2024-01-30T13:43:00;7.20;85.90
11304;DHT22;5707;49.588;12.148;2024-01-30T13:45:25;7.20;86.80
11304;DHT22;5707;49.588;12.148;2024-01-30T13:47:51;7.20;87.10
11304;DHT22;5707;49.588;12.148;2024-01-30T13:50:16;7.20;86.90
11304;DHT22;5707;49.588;12.148;2024-01-30T13:52:43;7.10;86.40
11304;DHT22;5707;49.588;12.148;2024-01-30T13:55:09;7.10;87.50
11304;DHT22;5707;49.588;12.148;2024-01-30T13:57:38;7.20;87.20
11304;DHT22;5707;49.588;12.148;2024-01-30T14:00:04;7.20;87.20
11304;DHT22;5707;49.588;12.148;2024-01-30T14:02:33;7.20;86.70
11304;DHT22;5707;49.588;12.148;2024-01-30T14:04:58;7.20;86.80
11304;DHT22;5707;49.588;12.148;2024-01-30T14:07:24;7.20;86.70
11304;DHT22;5707;49.588;12.148;2024-01-30T14:09:50;7.10;87.10
11304;DHT22;5707;49.588;12.148;2024-01-30T14:12:15;7.10;88.20
11304;DHT22;5707;49.588;12.148;2024-01-30T14:14:41;7.10;88.00
11304;DHT22;5707;49.588;12.148;2024-01-30T14:17:07;7.00;88.30
11304;DHT22;5707;49.588;12.148;2024-01-30T14:19:35;6.90;88.60
11304;DHT22;5707;49.588;12.148;2024-01-30T14:22:01;6.90;89.30
11304;DHT22;5707;49.588;12.148;2024-01-30T14:24:27;6.80;88.60
11304;DHT22;5707;49.588;12.148;2024-01-30T14:26:53;6.80;89.20
11304;DHT22;5707;49.588;12.148;2024-01-30T14:29:19;6.60;89.80
11304;DHT22;5707;49.588;12.148;2024-01-30T14:31:44;6.50;90.30
11304;DHT22;5707;49.588;12.148;2024-01-30T14:34:10;6.40;90.40
11304;DHT22;5707;49.588;12.148;2024-01-30T14:36:37;6.30;91.00
11304;DHT22;5707;49.588;12.148;2024-01-30T14:39:03;6.20;91.60
11304;DHT22;5707;49.588;12.148;2024-01-30T14:41:29;6.10;92.00
11304;DHT22;5707;49.588;12.148;2024-01-30T14:43:55;6.00;92.40
11304;DHT22;5707;49.588;12.148;2024-01-30T14:46:21;5.80;93.10
11304;DHT22;5707;49.588;12.148;2024-01-30T14:48:47;5.70;93.60
11304;DHT22;5707;49.588;12.148;2024-01-30T14:51:13;5.70;93.90
11304;DHT22;5707;49.588;12.148;2024-01-30T14:53:39;5.60;94.40
11304;DHT22;5707;49.588;12.148;2024-01-30T14:56:05;5.50;94.70
11304;DHT22;5707;49.588;12.148;2024-01-30T14:58:31;5.50;95.30
11304;DHT22;5707;49.588;12.148;2024-01-30T15:00:57;5.40;95.70
11304;DHT22;5707;49.588;12.148;2024-01-30T15:03:22;5.40;95.80
11304;DHT22;5707;49.588;12.148;2024-01-30T15:05:48;5.30;96.20
11304;DHT22;5707;49.588;12.148;2024-01-30T15:08:14;5.30;96.60
11304;DHT22;5707;49.588;12.148;2024-01-30T15:10:39;5.20;96.90
11304;DHT22;5707;49.588;12.148;2024-01-30T15:13:05;5.10;97.20
11304;DHT22;5707;49.588;12.148;2024-01-30T15:15:30;5.00;97.50
11304;DHT22;5707;49.588;12.148;2024-01-30T15:17:56;4.90;98.20
11304;DHT22;5707;49.588;12.148;2024-01-30T15:20:23;4.80;98.70
11304;DHT22;5707;49.588;12.148;2024-01-30T15:22:49;4.70;99.60
11304;DHT22;5707;49.588;12.148;2024-01-30T15:25:14;4.50;99.90
11304;DHT22;5707;49.588;12.148;2024-01-30T15:27:40;4.40;99.90
11304;DHT22;5707;49.588;12.148;2024-01-30T15:30:06;4.30;99.90
11304;DHT22;5707;49.588;12.148;2024-01-30T15:32:32;4.30;99.90
11304;DHT22;5707;49.588;12.148;2024-01-30T15:34:59;4.20;99.90